sensor_id;sensor_type;location;lat;lon;timestamp;temperature;humidity
52869;DHT22;39100;53.480;6.158;2023-07-29T00:00:45;18.40;99.90
52869;DHT22;39100;53.480;6.158;2023-07-29T00:03:10;18.40;99.90
52869;DHT22;39100;53.480;6.158;2023-07-29T00:05:40;18.40;99.90
52869;DHT22;39100;53.480;6.158;2023-07-29T00:08:06;18.30;99.90
52869;DHT22;39100;53.480;6.158;2023-07-29T00:10:34;18.40;99.90
52869;DHT22;39100;53.480;6.158;2023-07-29T00:13:01;18.40;99.90
52869;DHT22;39100;53.480;6.158;2023-07-29T00:15:26;18.40;99.90
52869;DHT22;39100;53.480;6.158;2023-07-29T00:17:52;18.30;99.90
52869;DHT22;39100;53.480;6.158;2023-07-29T00:20:17;18.40;99.90
52869;DHT22;39100;53.480;6.158;2023-07-29T00:22:43;18.40;99.90
52869;DHT22;39100;53.480;6.158;2023-07-29T00:25:08;18.40;99.90
52869;DHT22;39100;53.480;6.158;2023-07-29T00:27:34;18.30;99.90
52869;DHT22;39100;53.480;6.158;2023-07-29T00:30:00;18.30;99.90
52869;DHT22;39100;53.480;6.158;2023-07-29T00:32:28;18.20;99.90
52869;DHT22;39100;53.480;6.158;2023-07-29T00:34:54;18.30;99.90
52869;DHT22;39100;53.480;6.158;2023-07-29T00:37:20;18.30;99.90
52869;DHT22;39100;53.480;6.158;2023-07-29T00:39:46;18.20;99.90
52869;DHT22;39100;53.480;6.158;2023-07-29T00:42:11;18.30;99.90
52869;DHT22;39100;53.480;6.158;2023-07-29T00:44:37;18.30;99.90
52869;DHT22;39100;53.480;6.158;2023-07-29T00:47:03;18.20;99.90
52869;DHT22;39100;53.480;6.158;2023-07-29T00:49:30;18.30;99.90
52869;DHT22;39100;53.480;6.158;2023-07-29T00:51:56;18.20;99.90
52869;DHT22;39100;53.480;6.158;2023-07-29T00:54:23;18.20;99.90
52869;DHT22;39100;53.480;6.158;2023-07-29T00:56:48;18.20;99.90
52869;DHT22;39100;53.480;6.158;2023-07-29T00:59:14;18.20;99.90
52869;DHT22;39100;53.480;6.158;2023-07-29T01:01:40;18.20;99.90
52869;DHT22;39100;53.480;6.158;2023-07-29T01:04:05;18.20;99.90
52869;DHT22;39100;53.480;6.158;2023-07-29T01:06:58;18.10;99.90
52869;DHT22;39100;53.480;6.158;2023-07-29T01:09:55;18.20;99.90
52869;DHT22;39100;53.480;6.158;2023-07-29T01:17:33;18.10;99.90
52869;DHT22;39100;53.480;6.158;2023-07-29T01:20:07;18.10;99.90
52869;DHT22;39100;53.480;6.158;2023-07-29T01:22:37;18.10;99.90
52869;DHT22;39100;53.480;6.158;2023-07-29T01:25:03;18.10;99.90
52869;DHT22;39100;53.480;6.158;2023-07-29T01:27:29;18.10;99.90
52869;DHT22;39100;53.480;6.158;2023-07-29T01:29:55;18.00;99.90
52869;DHT22;39100;53.480;6.158;2023-07-29T01:32:35;18.00;99.90
52869;DHT22;39100;53.480;6.158;2023-07-29T01:37:34;18.00;99.90
52869;DHT22;39100;53.480;6.158;2023-07-29T01:40:01;18.10;99.90
52869;DHT22;39100;53.480;6.158;2023-07-29T01:42:27;18.00;99.90
52869;DHT22;39100;53.480;6.158;2023-07-29T01:44:53;18.20;99.90
52869;DHT22;39100;53.480;6.158;2023-07-29T01:47:20;18.10;99.90
52869;DHT22;39100;53.480;6.158;2023-07-29T01:49:47;18.00;99.90
52869;DHT22;39100;53.480;6.158;2023-07-29T01:52:13;18.00;99.90
52869;DHT22;39100;53.480;6.158;2023-07-29T01:54:38;18.00;99.90
52869;DHT22;39100;53.480;6.158;2023-07-29T01:57:04;18.10;99.90
52869;DHT22;39100;53.480;6.158;2023-07-29T01:59:29;18.00;99.90
52869;DHT22;39100;53.480;6.158;2023-07-29T02:01:55;18.00;99.90
52869;DHT22;39100;53.480;6.158;2023-07-29T02:04:20;18.00;99.90
52869;DHT22;39100;53.480;6.158;2023-07-29T02:06:46;18.00;99.90
52869;DHT22;39100;53.480;6.158;2023-07-29T02:09:11;18.10;99.90
52869;DHT22;39100;53.480;6.158;2023-07-29T02:11:37;18.00;99.90
52869;DHT22;39100;53.480;6.158;2023-07-29T02:14:02;17.90;99.90
52869;DHT22;39100;53.480;6.158;2023-07-29T02:16:28;17.90;99.90
52869;DHT22;39100;53.480;6.158;2023-07-29T02:18:54;17.90;99.90
52869;DHT22;39100;53.480;6.158;2023-07-29T02:21:20;17.90;99.90
52869;DHT22;39100;53.480;6.158;2023-07-29T02:23:45;17.80;99.90
52869;DHT22;39100;53.480;6.158;2023-07-29T02:26:11;17.80;99.90
52869;DHT22;39100;53.480;6.158;2023-07-29T02:28:36;17.80;99.90
52869;DHT22;39100;53.480;6.158;2023-07-29T02:31:21;17.80;99.90
52869;DHT22;39100;53.480;6.158;2023-07-29T02:33:47;17.80;99.90
52869;DHT22;39100;53.480;6.158;2023-07-29T02:36:13;17.80;99.90
52869;DHT22;39100;53.480;6.158;2023-07-29T02:38:40;17.70;99.90
52869;DHT22;39100;53.480;6.158;2023-07-29T02:41:05;17.70;99.90
52869;DHT22;39100;53.480;6.158;2023-07-29T02:43:31;17.80;99.90
52869;DHT22;39100;53.480;6.158;2023-07-29T02:45:57;17.80;99.90
52869;DHT22;39100;53.480;6.158;2023-07-29T02:48:23;17.80;99.90
52869;DHT22;39100;53.480;6.158;2023-07-29T02:50:48;17.80;99.90
52869;DHT22;39100;53.480;6.158;2023-07-29T02:53:14;17.80;99.90
52869;DHT22;39100;53.480;6.158;2023-07-29T02:55:40;17.80;99.90
52869;DHT22;39100;53.480;6.158;2023-07-29T02:58:06;17.80;99.90
52869;DHT22;39100;53.480;6.158;2023-07-29T03:00:32;17.80;99.90
52869;DHT22;39100;53.480;6.158;2023-07-29T03:02:58;17.90;99.90
52869;DHT22;39100;53.480;6.158;2023-07-29T03:05:24;17.80;99.90
52869;DHT22;39100;53.480;6.158;2023-07-29T03:07:52;17.90;99.90
52869;DHT22;39100;53.480;6.158;2023-07-29T03:10:18;17.70;99.90
52869;DHT22;39100;53.480;6.158;2023-07-29T03:12:43;17.80;99.90
52869;DHT22;39100;53.480;6.158;2023-07-29T03:15:09;17.80;99.90
52869;DHT22;39100;53.480;6.158;2023-07-29T03:17:34;17.80;99.90
52869;DHT22;39100;53.480;6.158;2023-07-29T03:20:00;17.80;99.90
52869;DHT22;39100;53.480;6.158;2023-07-29T03:22:26;17.70;99.90
52869;DHT22;39100;53.480;6.158;2023-07-29T03:24:51;17.80;99.90
52869;DHT22;39100;53.480;6.158;2023-07-29T03:27:17;17.70;99.90
52869;DHT22;39100;53.480;6.158;2023-07-29T03:29:42;17.70;99.90
52869;DHT22;39100;53.480;6.158;2023-07-29T03:32:08;17.70;99.90
52869;DHT22;39100;53.480;6.158;2023-07-29T03:34:34;17.70;99.90
52869;DHT22;39100;53.480;6.158;2023-07-29T03:37:00;17.70;99.90
52869;DHT22;39100;53.480;6.158;2023-07-29T03:39:26;17.70;99.90
52869;DHT22;39100;53.480;6.158;2023-07-29T03:41:52;17.70;99.90
52869;DHT22;39100;53.480;6.158;2023-07-29T03:44:18;17.70;99.90
52869;DHT22;39100;53.480;6.158;2023-07-29T03:46:44;17.80;99.90
52869;DHT22;39100;53.480;6.158;2023-07-29T03:49:10;17.70;99.90
52869;DHT22;39100;53.480;6.158;2023-07-29T03:51:36;17.80;99.90
52869;DHT22;39100;53.480;6.158;2023-07-29T03:54:01;17.80;99.90
52869;DHT22;39100;53.480;6.158;2023-07-29T03:56:27;17.70;99.90
52869;DHT22;39100;53.480;6.158;2023-07-29T03:58:53;17.60;99.90
52869;DHT22;39100;53.480;6.158;2023-07-29T04:01:19;17.80;99.90
52869;DHT22;39100;53.480;6.158;2023-07-29T04:03:45;17.70;99.90
52869;DHT22;39100;53.480;6.158;2023-07-29T04:06:11;17.60;99.90
52869;DHT22;39100;53.480;6.158;2023-07-29T04:08:37;17.70;99.90
52869;DHT22;39100;53.480;6.158;2023-07-29T04:11:03;17.70;99.90
52869;DHT22;39100;53.480;6.158;2023-07-29T04:13:28;17.60;99.90
52869;DHT22;39100;53.480;6.158;2023-07-29T04:15:54;17.70;99.90
52869;DHT22;39100;53.480;6.158;2023-07-29T04:18:20;17.70;99.90
52869;DHT22;39100;53.480;6.158;2023-07-29T04:20:45;17.60;99.90
52869;DHT22;39100;53.480;6.158;2023-07-29T04:23:11;17.60;99.90
52869;DHT22;39100;53.480;6.158;2023-07-29T04:25:37;17.60;99.90
52869;DHT22;39100;53.480;6.158;2023-07-29T04:28:02;17.60;99.90
52869;DHT22;39100;53.480;6.158;2023-07-29T04:30:30;17.60;99.90
52869;DHT22;39100;53.480;6.158;2023-07-29T04:32:55;18.40;99.90
52869;DHT22;39100;53.480;6.158;2023-07-29T04:35:21;17.60;99.90
52869;DHT22;39100;53.480;6.158;2023-07-29T04:37:46;17.60;99.90
52869;DHT22;39100;53.480;6.158;2023-07-29T04:40:13;17.60;99.90
52869;DHT22;39100;53.480;6.158;2023-07-29T04:42:39;17.60;99.90
52869;DHT22;39100;53.480;6.158;2023-07-29T04:45:05;17.60;99.90
52869;DHT22;39100;53.480;6.158;2023-07-29T04:47:31;17.60;99.90
52869;DHT22;39100;53.480;6.158;2023-07-29T04:49:56;17.60;99.90
52869;DHT22;39100;53.480;6.158;2023-07-29T04:52:25;17.60;99.90
52869;DHT22;39100;53.480;6.158;2023-07-29T04:54:50;17.60;99.90
52869;DHT22;39100;53.480;6.158;2023-07-29T04:57:16;17.70;99.90
52869;DHT22;39100;53.480;6.158;2023-07-29T04:59:42;17.90;99.90
52869;DHT22;39100;53.480;6.158;2023-07-29T05:02:07;17.60;99.90
52869;DHT22;39100;53.480;6.158;2023-07-29T05:04:33;17.60;99.90
52869;DHT22;39100;53.480;6.158;2023-07-29T05:06:58;17.60;99.90
52869;DHT22;39100;53.480;6.158;2023-07-29T05:09:24;17.70;99.90
52869;DHT22;39100;53.480;6.158;2023-07-29T05:11:50;17.70;99.90
52869;DHT22;39100;53.480;6.158;2023-07-29T05:14:17;17.60;99.90
52869;DHT22;39100;53.480;6.158;2023-07-29T05:16:43;17.70;99.90
52869;DHT22;39100;53.480;6.158;2023-07-29T05:19:09;17.60;99.90
52869;DHT22;39100;53.480;6.158;2023-07-29T05:21:36;17.60;99.90
52869;DHT22;39100;53.480;6.158;2023-07-29T05:24:02;17.70;99.90
52869;DHT22;39100;53.480;6.158;2023-07-29T05:26:27;17.70;99.90
52869;DHT22;39100;53.480;6.158;2023-07-29T05:28:53;17.70;99.90
52869;DHT22;39100;53.480;6.158;2023-07-29T05:31:18;17.70;99.90
52869;DHT22;39100;53.480;6.158;2023-07-29T05:33:44;17.60;99.90
52869;DHT22;39100;53.480;6.158;2023-07-29T05:36:09;17.60;99.90
52869;DHT22;39100;53.480;6.158;2023-07-29T05:38:35;17.60;99.90
52869;DHT22;39100;53.480;6.158;2023-07-29T05:41:01;17.70;99.90
52869;DHT22;39100;53.480;6.158;2023-07-29T05:43:27;17.70;99.90
52869;DHT22;39100;53.480;6.158;2023-07-29T05:45:53;17.70;99.90
52869;DHT22;39100;53.480;6.158;2023-07-29T05:48:19;17.70;99.90
52869;DHT22;39100;53.480;6.158;2023-07-29T05:50:45;17.70;99.90
52869;DHT22;39100;53.480;6.158;2023-07-29T05:53:11;17.70;99.90
52869;DHT22;39100;53.480;6.158;2023-07-29T05:55:36;17.70;99.90
52869;DHT22;39100;53.480;6.158;2023-07-29T05:58:02;17.70;99.90
52869;DHT22;39100;53.480;6.158;2023-07-29T06:00:27;17.70;99.90
52869;DHT22;39100;53.480;6.158;2023-07-29T06:02:53;17.80;99.90
52869;DHT22;39100;53.480;6.158;2023-07-29T06:05:18;17.80;99.90
52869;DHT22;39100;53.480;6.158;2023-07-29T06:07:44;17.80;99.90
52869;DHT22;39100;53.480;6.158;2023-07-29T06:10:14;17.80;99.90
52869;DHT22;39100;53.480;6.158;2023-07-29T06:12:43;17.80;99.90
52869;DHT22;39100;53.480;6.158;2023-07-29T06:15:09;17.80;99.90
52869;DHT22;39100;53.480;6.158;2023-07-29T06:17:34;17.80;99.90
52869;DHT22;39100;53.480;6.158;2023-07-29T06:20:00;17.80;99.90
52869;DHT22;39100;53.480;6.158;2023-07-29T06:22:25;17.80;99.90
52869;DHT22;39100;53.480;6.158;2023-07-29T06:24:51;17.80;99.90
52869;DHT22;39100;53.480;6.158;2023-07-29T06:27:16;17.80;99.90
52869;DHT22;39100;53.480;6.158;2023-07-29T06:29:42;18.00;99.90
52869;DHT22;39100;53.480;6.158;2023-07-29T06:32:07;17.90;99.90
52869;DHT22;39100;53.480;6.158;2023-07-29T06:34:33;18.00;99.90
52869;DHT22;39100;53.480;6.158;2023-07-29T06:36:59;18.10;99.90
52869;DHT22;39100;53.480;6.158;2023-07-29T06:39:24;18.20;99.90
52869;DHT22;39100;53.480;6.158;2023-07-29T06:41:50;18.20;99.90
52869;DHT22;39100;53.480;6.158;2023-07-29T06:44:15;18.90;99.90
52869;DHT22;39100;53.480;6.158;2023-07-29T06:46:41;18.40;99.90
52869;DHT22;39100;53.480;6.158;2023-07-29T06:49:07;18.50;99.90
52869;DHT22;39100;53.480;6.158;2023-07-29T06:51:32;19.20;99.90
52869;DHT22;39100;53.480;6.158;2023-07-29T06:54:00;18.60;99.90
52869;DHT22;39100;53.480;6.158;2023-07-29T06:56:26;18.60;99.90
52869;DHT22;39100;53.480;6.158;2023-07-29T06:58:52;18.60;99.90
52869;DHT22;39100;53.480;6.158;2023-07-29T07:01:17;18.70;99.90
52869;DHT22;39100;53.480;6.158;2023-07-29T07:03:43;18.70;99.90
52869;DHT22;39100;53.480;6.158;2023-07-29T07:06:08;18.90;99.90
52869;DHT22;39100;53.480;6.158;2023-07-29T07:08:34;19.00;99.90
52869;DHT22;39100;53.480;6.158;2023-07-29T07:10:59;19.20;99.90
52869;DHT22;39100;53.480;6.158;2023-07-29T07:13:25;19.20;99.90
52869;DHT22;39100;53.480;6.158;2023-07-29T07:15:53;19.30;99.90
52869;DHT22;39100;53.480;6.158;2023-07-29T07:18:19;19.30;99.90
52869;DHT22;39100;53.480;6.158;2023-07-29T07:20:51;19.30;99.90
52869;DHT22;39100;53.480;6.158;2023-07-29T07:23:18;19.30;99.90
52869;DHT22;39100;53.480;6.158;2023-07-29T07:25:43;19.20;99.90
52869;DHT22;39100;53.480;6.158;2023-07-29T07:28:10;19.30;99.90
52869;DHT22;39100;53.480;6.158;2023-07-29T07:30:38;19.20;99.90
52869;DHT22;39100;53.480;6.158;2023-07-29T07:33:04;19.20;99.90
52869;DHT22;39100;53.480;6.158;2023-07-29T07:35:30;19.20;99.90
52869;DHT22;39100;53.480;6.158;2023-07-29T07:37:55;19.20;99.90
52869;DHT22;39100;53.480;6.158;2023-07-29T07:40:21;19.20;99.90
52869;DHT22;39100;53.480;6.158;2023-07-29T07:42:46;19.20;99.90
52869;DHT22;39100;53.480;6.158;2023-07-29T07:45:12;19.30;99.90
52869;DHT22;39100;53.480;6.158;2023-07-29T07:47:37;19.50;99.90
52869;DHT22;39100;53.480;6.158;2023-07-29T07:50:03;19.40;99.90
52869;DHT22;39100;53.480;6.158;2023-07-29T07:52:29;19.40;99.90
52869;DHT22;39100;53.480;6.158;2023-07-29T07:54:54;19.50;99.90
52869;DHT22;39100;53.480;6.158;2023-07-29T07:57:21;19.80;99.90
52869;DHT22;39100;53.480;6.158;2023-07-29T07:59:46;19.80;99.90
52869;DHT22;39100;53.480;6.158;2023-07-29T08:02:12;20.00;99.90
52869;DHT22;39100;53.480;6.158;2023-07-29T08:04:38;20.10;99.90
52869;DHT22;39100;53.480;6.158;2023-07-29T08:07:04;20.10;99.90
52869;DHT22;39100;53.480;6.158;2023-07-29T08:09:29;20.20;99.90
52869;DHT22;39100;53.480;6.158;2023-07-29T08:11:55;20.30;99.90
52869;DHT22;39100;53.480;6.158;2023-07-29T08:14:21;20.40;99.90
52869;DHT22;39100;53.480;6.158;2023-07-29T08:16:46;20.40;99.90
52869;DHT22;39100;53.480;6.158;2023-07-29T08:19:12;20.70;99.90
52869;DHT22;39100;53.480;6.158;2023-07-29T08:21:37;20.50;99.90
52869;DHT22;39100;53.480;6.158;2023-07-29T08:24:03;20.50;99.90
52869;DHT22;39100;53.480;6.158;2023-07-29T08:26:29;20.50;99.90
52869;DHT22;39100;53.480;6.158;2023-07-29T08:28:54;20.40;99.90
52869;DHT22;39100;53.480;6.158;2023-07-29T08:31:20;20.40;99.90
52869;DHT22;39100;53.480;6.158;2023-07-29T08:33:45;20.20;99.90
52869;DHT22;39100;53.480;6.158;2023-07-29T08:36:11;20.30;99.90
52869;DHT22;39100;53.480;6.158;2023-07-29T08:38:36;20.30;99.90
52869;DHT22;39100;53.480;6.158;2023-07-29T08:41:22;20.30;99.90
52869;DHT22;39100;53.480;6.158;2023-07-29T08:44:01;20.10;99.90
52869;DHT22;39100;53.480;6.158;2023-07-29T08:46:28;20.10;99.90
52869;DHT22;39100;53.480;6.158;2023-07-29T08:48:55;20.10;99.90
52869;DHT22;39100;53.480;6.158;2023-07-29T08:51:21;20.10;99.90
52869;DHT22;39100;53.480;6.158;2023-07-29T08:53:49;20.00;99.90
52869;DHT22;39100;53.480;6.158;2023-07-29T08:56:15;20.00;99.90
52869;DHT22;39100;53.480;6.158;2023-07-29T08:58:41;20.10;99.90
52869;DHT22;39100;53.480;6.158;2023-07-29T09:01:07;20.00;99.90
52869;DHT22;39100;53.480;6.158;2023-07-29T09:03:33;20.00;99.90
52869;DHT22;39100;53.480;6.158;2023-07-29T09:05:59;19.90;99.90
52869;DHT22;39100;53.480;6.158;2023-07-29T09:08:26;19.80;99.90
52869;DHT22;39100;53.480;6.158;2023-07-29T09:10:53;19.70;99.90
52869;DHT22;39100;53.480;6.158;2023-07-29T09:13:19;19.70;99.90
52869;DHT22;39100;53.480;6.158;2023-07-29T09:15:45;19.70;99.90
52869;DHT22;39100;53.480;6.158;2023-07-29T09:18:15;19.60;99.90
52869;DHT22;39100;53.480;6.158;2023-07-29T09:20:41;19.70;99.90
52869;DHT22;39100;53.480;6.158;2023-07-29T09:23:09;19.80;99.90
52869;DHT22;39100;53.480;6.158;2023-07-29T09:25:37;19.80;99.90
52869;DHT22;39100;53.480;6.158;2023-07-29T09:28:14;19.80;99.90
52869;DHT22;39100;53.480;6.158;2023-07-29T09:30:41;19.90;99.90
52869;DHT22;39100;53.480;6.158;2023-07-29T09:33:08;19.90;99.90
52869;DHT22;39100;53.480;6.158;2023-07-29T09:35:36;19.90;99.90
52869;DHT22;39100;53.480;6.158;2023-07-29T09:38:03;20.00;99.90
52869;DHT22;39100;53.480;6.158;2023-07-29T09:40:37;20.10;99.90
52869;DHT22;39100;53.480;6.158;2023-07-29T09:43:04;20.20;99.90
52869;DHT22;39100;53.480;6.158;2023-07-29T09:45:30;20.40;99.90
52869;DHT22;39100;53.480;6.158;2023-07-29T09:47:57;20.50;99.90
52869;DHT22;39100;53.480;6.158;2023-07-29T09:50:24;20.60;99.90
52869;DHT22;39100;53.480;6.158;2023-07-29T09:52:51;20.80;99.90
52869;DHT22;39100;53.480;6.158;2023-07-29T09:55:22;20.70;99.90
52869;DHT22;39100;53.480;6.158;2023-07-29T09:57:53;20.70;99.90
52869;DHT22;39100;53.480;6.158;2023-07-29T10:00:19;20.60;99.90
52869;DHT22;39100;53.480;6.158;2023-07-29T10:02:44;20.50;99.90
52869;DHT22;39100;53.480;6.158;2023-07-29T10:05:10;20.60;99.90
52869;DHT22;39100;53.480;6.158;2023-07-29T10:07:37;20.40;99.90
52869;DHT22;39100;53.480;6.158;2023-07-29T10:10:07;20.70;99.90
52869;DHT22;39100;53.480;6.158;2023-07-29T10:12:34;20.40;99.90
52869;DHT22;39100;53.480;6.158;2023-07-29T10:15:03;20.40;99.90
52869;DHT22;39100;53.480;6.158;2023-07-29T10:17:30;20.50;99.90
52869;DHT22;39100;53.480;6.158;2023-07-29T10:19:57;20.50;99.90
52869;DHT22;39100;53.480;6.158;2023-07-29T10:22:29;20.50;99.90
52869;DHT22;39100;53.480;6.158;2023-07-29T10:25:03;20.50;99.90
52869;DHT22;39100;53.480;6.158;2023-07-29T10:27:39;20.60;99.90
52869;DHT22;39100;53.480;6.158;2023-07-29T10:30:07;20.60;99.90
52869;DHT22;39100;53.480;6.158;2023-07-29T10:32:34;20.70;99.90
52869;DHT22;39100;53.480;6.158;2023-07-29T10:35:00;20.80;99.90
52869;DHT22;39100;53.480;6.158;2023-07-29T10:37:26;20.90;99.90
52869;DHT22;39100;53.480;6.158;2023-07-29T10:39:53;20.90;99.90
52869;DHT22;39100;53.480;6.158;2023-07-29T10:42:19;21.00;99.90
52869;DHT22;39100;53.480;6.158;2023-07-29T10:44:51;21.10;99.90
52869;DHT22;39100;53.480;6.158;2023-07-29T10:47:19;21.20;99.90
52869;DHT22;39100;53.480;6.158;2023-07-29T10:49:48;21.20;99.90
52869;DHT22;39100;53.480;6.158;2023-07-29T10:54:59;21.10;99.90
52869;DHT22;39100;53.480;6.158;2023-07-29T10:57:33;21.00;99.90
52869;DHT22;39100;53.480;6.158;2023-07-29T10:59:59;21.10;99.90
52869;DHT22;39100;53.480;6.158;2023-07-29T11:02:33;21.10;99.90
52869;DHT22;39100;53.480;6.158;2023-07-29T11:05:07;21.20;99.90
52869;DHT22;39100;53.480;6.158;2023-07-29T11:07:47;21.30;99.90
52869;DHT22;39100;53.480;6.158;2023-07-29T11:10:13;21.50;99.90
52869;DHT22;39100;53.480;6.158;2023-07-29T11:12:49;21.60;99.90
52869;DHT22;39100;53.480;6.158;2023-07-29T11:15:22;21.60;99.90
52869;DHT22;39100;53.480;6.158;2023-07-29T11:17:59;21.50;99.90
52869;DHT22;39100;53.480;6.158;2023-07-29T11:20:32;21.30;99.90
52869;DHT22;39100;53.480;6.158;2023-07-29T11:23:03;21.20;99.90
52869;DHT22;39100;53.480;6.158;2023-07-29T11:25:30;21.00;99.90
52869;DHT22;39100;53.480;6.158;2023-07-29T11:27:57;20.90;99.90
52869;DHT22;39100;53.480;6.158;2023-07-29T11:30:23;20.70;99.90
52869;DHT22;39100;53.480;6.158;2023-07-29T11:32:53;20.50;99.90
52869;DHT22;39100;53.480;6.158;2023-07-29T11:35:19;20.20;99.90
52869;DHT22;39100;53.480;6.158;2023-07-29T11:37:49;20.00;99.90
52869;DHT22;39100;53.480;6.158;2023-07-29T11:40:17;19.80;99.90
52869;DHT22;39100;53.480;6.158;2023-07-29T11:42:42;19.60;99.90
52869;DHT22;39100;53.480;6.158;2023-07-29T11:45:08;19.50;99.90
52869;DHT22;39100;53.480;6.158;2023-07-29T11:47:35;19.50;99.90
52869;DHT22;39100;53.480;6.158;2023-07-29T11:50:12;19.60;99.90
52869;DHT22;39100;53.480;6.158;2023-07-29T11:52:43;19.70;99.90
52869;DHT22;39100;53.480;6.158;2023-07-29T11:55:08;20.00;99.90
52869;DHT22;39100;53.480;6.158;2023-07-29T11:57:36;20.00;99.90
52869;DHT22;39100;53.480;6.158;2023-07-29T12:00:07;19.90;99.90
52869;DHT22;39100;53.480;6.158;2023-07-29T12:02:38;19.90;99.90
52869;DHT22;39100;53.480;6.158;2023-07-29T12:05:04;20.10;99.90
52869;DHT22;39100;53.480;6.158;2023-07-29T12:07:31;20.20;99.90
52869;DHT22;39100;53.480;6.158;2023-07-29T12:09:57;20.40;99.90
52869;DHT22;39100;53.480;6.158;2023-07-29T12:12:23;20.70;99.90
52869;DHT22;39100;53.480;6.158;2023-07-29T12:14:48;20.80;99.90
52869;DHT22;39100;53.480;6.158;2023-07-29T12:17:15;21.00;99.90
52869;DHT22;39100;53.480;6.158;2023-07-29T12:19:41;21.20;99.90
52869;DHT22;39100;53.480;6.158;2023-07-29T12:22:08;21.30;99.90
52869;DHT22;39100;53.480;6.158;2023-07-29T12:24:39;21.40;99.90
52869;DHT22;39100;53.480;6.158;2023-07-29T12:27:05;21.50;99.90
52869;DHT22;39100;53.480;6.158;2023-07-29T12:29:31;21.70;99.90
52869;DHT22;39100;53.480;6.158;2023-07-29T12:31:58;21.80;99.90
52869;DHT22;39100;53.480;6.158;2023-07-29T12:34:26;21.80;99.90
52869;DHT22;39100;53.480;6.158;2023-07-29T12:36:53;22.00;99.90
52869;DHT22;39100;53.480;6.158;2023-07-29T12:39:25;21.70;99.90
52869;DHT22;39100;53.480;6.158;2023-07-29T12:41:52;21.50;99.90
52869;DHT22;39100;53.480;6.158;2023-07-29T12:44:18;21.20;99.90
52869;DHT22;39100;53.480;6.158;2023-07-29T12:46:44;21.10;99.90
52869;DHT22;39100;53.480;6.158;2023-07-29T12:49:10;21.00;99.90
52869;DHT22;39100;53.480;6.158;2023-07-29T12:51:35;20.90;99.90
52869;DHT22;39100;53.480;6.158;2023-07-29T12:54:02;20.80;99.90
52869;DHT22;39100;53.480;6.158;2023-07-29T12:56:29;20.80;99.90
52869;DHT22;39100;53.480;6.158;2023-07-29T12:58:58;20.70;99.90
52869;DHT22;39100;53.480;6.158;2023-07-29T13:01:24;20.60;99.90
52869;DHT22;39100;53.480;6.158;2023-07-29T13:03:50;20.50;99.90
52869;DHT22;39100;53.480;6.158;2023-07-29T13:06:16;20.30;99.90
52869;DHT22;39100;53.480;6.158;2023-07-29T13:08:42;20.30;99.90
52869;DHT22;39100;53.480;6.158;2023-07-29T13:11:08;20.30;99.90
52869;DHT22;39100;53.480;6.158;2023-07-29T13:13:33;20.40;99.90
52869;DHT22;39100;53.480;6.158;2023-07-29T13:15:59;20.50;99.90
52869;DHT22;39100;53.480;6.158;2023-07-29T13:18:25;20.50;99.90
52869;DHT22;39100;53.480;6.158;2023-07-29T13:20:50;20.50;99.90
52869;DHT22;39100;53.480;6.158;2023-07-29T13:23:16;20.60;99.90
52869;DHT22;39100;53.480;6.158;2023-07-29T13:25:42;20.60;99.90
52869;DHT22;39100;53.480;6.158;2023-07-29T13:28:11;20.60;99.90
52869;DHT22;39100;53.480;6.158;2023-07-29T13:30:39;20.70;99.90
52869;DHT22;39100;53.480;6.158;2023-07-29T13:33:05;20.70;99.90
52869;DHT22;39100;53.480;6.158;2023-07-29T13:35:31;20.60;99.90
52869;DHT22;39100;53.480;6.158;2023-07-29T13:37:56;20.50;99.90
52869;DHT22;39100;53.480;6.158;2023-07-29T13:40:22;20.70;99.90
52869;DHT22;39100;53.480;6.158;2023-07-29T13:42:47;20.90;99.90
52869;DHT22;39100;53.480;6.158;2023-07-29T13:45:13;21.10;99.90
52869;DHT22;39100;53.480;6.158;2023-07-29T13:47:38;21.30;99.90
52869;DHT22;39100;53.480;6.158;2023-07-29T13:50:05;21.50;99.90
52869;DHT22;39100;53.480;6.158;2023-07-29T13:52:32;21.80;99.90
52869;DHT22;39100;53.480;6.158;2023-07-29T13:54:58;21.90;99.90
52869;DHT22;39100;53.480;6.158;2023-07-29T13:57:23;22.10;99.90
52869;DHT22;39100;53.480;6.158;2023-07-29T13:59:49;22.30;99.90
52869;DHT22;39100;53.480;6.158;2023-07-29T14:02:14;22.40;99.90
52869;DHT22;39100;53.480;6.158;2023-07-29T14:04:40;22.40;99.90
52869;DHT22;39100;53.480;6.158;2023-07-29T14:07:06;22.60;99.90
52869;DHT22;39100;53.480;6.158;2023-07-29T14:09:31;22.60;99.90
52869;DHT22;39100;53.480;6.158;2023-07-29T14:11:57;22.70;99.90
52869;DHT22;39100;53.480;6.158;2023-07-29T14:14:23;22.70;99.90
52869;DHT22;39100;53.480;6.158;2023-07-29T14:16:48;22.70;99.90
52869;DHT22;39100;53.480;6.158;2023-07-29T14:19:14;22.80;99.90
52869;DHT22;39100;53.480;6.158;2023-07-29T14:21:40;22.90;99.90
52869;DHT22;39100;53.480;6.158;2023-07-29T14:24:05;22.90;99.90
52869;DHT22;39100;53.480;6.158;2023-07-29T14:26:31;22.90;99.90
52869;DHT22;39100;53.480;6.158;2023-07-29T14:28:57;22.90;99.90
52869;DHT22;39100;53.480;6.158;2023-07-29T14:31:22;22.80;99.90
52869;DHT22;39100;53.480;6.158;2023-07-29T14:33:48;22.80;99.90
52869;DHT22;39100;53.480;6.158;2023-07-29T14:36:18;22.80;99.90
52869;DHT22;39100;53.480;6.158;2023-07-29T14:38:43;22.90;99.90
52869;DHT22;39100;53.480;6.158;2023-07-29T14:41:09;23.00;99.90
52869;DHT22;39100;53.480;6.158;2023-07-29T14:43:35;22.90;99.90
52869;DHT22;39100;53.480;6.158;2023-07-29T14:46:01;22.90;99.90
52869;DHT22;39100;53.480;6.158;2023-07-29T14:48:27;22.90;99.90
52869;DHT22;39100;53.480;6.158;2023-07-29T14:50:53;22.90;99.90
52869;DHT22;39100;53.480;6.158;2023-07-29T14:53:18;22.90;99.90
52869;DHT22;39100;53.480;6.158;2023-07-29T14:55:44;23.00;99.90
52869;DHT22;39100;53.480;6.158;2023-07-29T14:58:09;23.10;99.90
52869;DHT22;39100;53.480;6.158;2023-07-29T15:00:35;22.90;99.90
52869;DHT22;39100;53.480;6.158;2023-07-29T15:03:00;22.90;99.90
52869;DHT22;39100;53.480;6.158;2023-07-29T15:05:26;22.90;99.90
52869;DHT22;39100;53.480;6.158;2023-07-29T15:07:52;22.90;99.90
52869;DHT22;39100;53.480;6.158;2023-07-29T15:10:17;22.90;99.90
52869;DHT22;39100;53.480;6.158;2023-07-29T15:12:44;22.90;99.90
52869;DHT22;39100;53.480;6.158;2023-07-29T15:15:11;22.80;99.90
52869;DHT22;39100;53.480;6.158;2023-07-29T15:17:37;22.70;99.90
52869;DHT22;39100;53.480;6.158;2023-07-29T15:20:03;22.70;99.90
52869;DHT22;39100;53.480;6.158;2023-07-29T15:22:29;22.80;99.90
52869;DHT22;39100;53.480;6.158;2023-07-29T15:24:57;22.80;99.90
52869;DHT22;39100;53.480;6.158;2023-07-29T15:27:23;22.80;99.90
52869;DHT22;39100;53.480;6.158;2023-07-29T15:29:48;22.70;99.90
52869;DHT22;39100;53.480;6.158;2023-07-29T15:32:14;22.70;99.90
52869;DHT22;39100;53.480;6.158;2023-07-29T15:34:39;22.70;99.90
52869;DHT22;39100;53.480;6.158;2023-07-29T15:37:05;22.70;99.90